Time;durP1;ratioP1;P1;durP2;ratioP2;P2;SDS_P1;SDS_P2;PMS_P1;PMS_P2;Temp;Humidity;BMP_temperature;BMP_pressure;BME280_temperature;BME280_humidity;BME280_pressure;Samples;Min_cycle;Max_cycle;Signal;HPM_P1;HPM_P2
2023/10/03 00:00:24;;;;;;;13.25;7.80;;;13.90;99.90;;;;;;5021357;28;20041;-63
2023/10/03 00:02:57;;;;;;;13.38;8.27;;;13.90;99.90;;;;;;5023236;28;20068;-62
2023/10/03 00:05:28;;;;;;;12.20;7.75;;;13.80;99.90;;;;;;5023770;28;20049;-63
2023/10/03 00:07:54;;;;;;;14.20;8.48;;;13.80;99.90;;;;;;5015824;28;20041;-63
2023/10/03 00:10:20;;;;;;;12.23;7.82;;;13.70;99.90;;;;;;5031201;28;20041;-62
2023/10/03 00:12:48;;;;;;;15.85;8.18;;;13.70;99.90;;;;;;5009748;28;20032;-61
2023/10/03 00:15:15;;;;;;;12.45;7.70;;;13.70;99.90;;;;;;5008408;28;20923;-62
2023/10/03 00:17:41;;;;;;;11.00;6.95;;;13.70;99.90;;;;;;5008057;28;20025;-63
2023/10/03 00:20:11;;;;;;;16.80;8.48;;;13.60;99.90;;;;;;5019240;28;20416;-62
2023/10/03 00:22:38;;;;;;;10.18;7.03;;;13.60;99.90;;;;;;5006444;28;20056;-63
2023/10/03 00:25:05;;;;;;;12.85;7.70;;;13.50;99.90;;;;;;5020619;28;20041;-62
2023/10/03 00:27:35;;;;;;;15.75;9.05;;;13.50;99.90;;;;;;5015557;28;20035;-63
2023/10/03 00:30:01;;;;;;;12.95;7.88;;;13.50;99.90;;;;;;5007495;28;20087;-63
2023/10/03 00:32:26;;;;;;;12.63;7.25;;;13.50;99.90;;;;;;5022342;28;20432;-63
2023/10/03 00:34:52;;;;;;;13.50;7.38;;;13.40;99.90;;;;;;5022946;28;20025;-62
2023/10/03 00:37:18;;;;;;;12.77;7.53;;;13.40;99.90;;;;;;5023631;28;20032;-62
2023/10/03 00:39:43;;;;;;;12.38;6.75;;;13.40;99.90;;;;;;5022459;28;20044;-61
2023/10/03 00:42:10;;;;;;;11.35;6.75;;;13.30;99.90;;;;;;5024432;28;20120;-62
2023/10/03 00:44:37;;;;;;;11.23;6.45;;;13.30;99.90;;;;;;5021165;28;20591;-63
2023/10/03 00:47:07;;;;;;;13.18;6.55;;;13.30;99.90;;;;;;5017107;28;20504;-63
2023/10/03 00:49:35;;;;;;;13.25;7.28;;;13.30;99.90;;;;;;5022703;28;20033;-62
2023/10/03 00:52:05;;;;;;;13.40;6.57;;;13.30;99.90;;;;;;5022239;28;20049;-62
2023/10/03 00:54:32;;;;;;;10.45;6.95;;;13.30;99.90;;;;;;5024027;28;20032;-63
2023/10/03 00:56:57;;;;;;;11.05;6.38;;;13.20;99.90;;;;;;5020524;28;20021;-62
2023/10/03 00:59:23;;;;;;;12.02;6.93;;;13.20;99.90;;;;;;5023546;28;20458;-62
2023/10/03 01:01:49;;;;;;;11.82;6.68;;;13.20;99.90;;;;;;5025047;28;20056;-62
2023/10/03 01:04:19;;;;;;;12.07;7.10;;;13.20;99.90;;;;;;5019872;28;20654;-62
2023/10/03 01:06:47;;;;;;;12.50;7.25;;;13.20;99.90;;;;;;5026750;28;20029;-62
2023/10/03 01:09:20;;;;;;;11.88;7.00;;;13.20;99.90;;;;;;5021387;28;20029;-63
2023/10/03 01:11:48;;;;;;;11.43;6.88;;;13.20;99.90;;;;;;5027493;28;20477;-62
2023/10/03 01:14:15;;;;;;;10.60;7.15;;;13.20;99.90;;;;;;5024909;28;20086;-62
2023/10/03 01:16:41;;;;;;;10.90;6.90;;;13.10;99.90;;;;;;5022981;28;20052;-62
2023/10/03 01:19:20;;;;;;;11.00;6.60;;;13.10;99.90;;;;;;5025927;28;20025;-62
2023/10/03 01:21:50;;;;;;;13.70;6.85;;;13.10;99.90;;;;;;5033778;28;20029;-62
2023/10/03 01:24:20;;;;;;;13.68;6.63;;;13.10;99.90;;;;;;5033027;28;20029;-62
2023/10/03 01:26:46;;;;;;;13.55;7.30;;;13.10;99.90;;;;;;5033347;28;20079;-62
2023/10/03 01:29:12;;;;;;;10.88;5.82;;;13.00;99.90;;;;;;5033292;28;20159;-62
2023/10/03 01:31:40;;;;;;;9.80;6.68;;;13.00;99.90;;;;;;5028621;28;20026;-63
2023/10/03 01:34:05;;;;;;;13.52;7.25;;;12.90;99.90;;;;;;5036247;28;20104;-62
2023/10/03 01:36:31;;;;;;;10.50;6.15;;;12.90;99.90;;;;;;5034654;28;20524;-63
2023/10/03 01:38:57;;;;;;;13.40;6.65;;;12.90;99.90;;;;;;5028076;28;20030;-62
2023/10/03 01:41:22;;;;;;;10.07;5.95;;;12.90;99.90;;;;;;5036915;28;20108;-62
2023/10/03 01:43:48;;;;;;;11.43;6.88;;;12.90;99.90;;;;;;5035343;28;20033;-62
2023/10/03 01:46:14;;;;;;;15.23;6.90;;;12.80;99.90;;;;;;5035723;28;20108;-62
2023/10/03 01:48:41;;;;;;;12.85;6.93;;;12.90;99.90;;;;;;5030080;28;20029;-63
2023/10/03 01:51:08;;;;;;;12.63;6.80;;;12.80;99.90;;;;;;5036607;28;20024;-62
2023/10/03 01:53:34;;;;;;;10.77;6.30;;;12.80;99.90;;;;;;5016279;28;20280;-62
2023/10/03 01:56:00;;;;;;;10.93;6.63;;;12.70;99.90;;;;;;5017652;28;20030;-64
2023/10/03 01:58:26;;;;;;;12.30;7.50;;;12.70;99.90;;;;;;5034703;28;20028;-63
2023/10/03 02:00:51;;;;;;;11.15;6.88;;;12.70;99.90;;;;;;5033089;28;20041;-62
2023/10/03 02:03:18;;;;;;;11.85;6.55;;;12.60;99.90;;;;;;5028720;28;20027;-63
2023/10/03 02:05:45;;;;;;;9.30;5.53;;;12.60;99.90;;;;;;5027787;28;20014;-62
2023/10/03 02:08:15;;;;;;;7.90;5.35;;;12.60;99.90;;;;;;5025506;28;20095;-62
2023/10/03 02:10:49;;;;;;;9.18;5.43;;;12.60;99.90;;;;;;5026183;28;20036;-62
2023/10/03 02:13:17;;;;;;;10.45;5.55;;;12.60;99.90;;;;;;5027867;28;20017;-63
2023/10/03 02:15:46;;;;;;;12.48;5.85;;;12.60;99.90;;;;;;5029190;28;20017;-63
2023/10/03 02:18:13;;;;;;;12.07;6.38;;;12.60;99.90;;;;;;5026049;28;20330;-62
2023/10/03 02:20:47;;;;;;;10.80;6.55;;;12.60;99.90;;;;;;5034400;28;20392;-63
2023/10/03 02:23:17;;;;;;;9.55;5.50;;;12.60;99.90;;;;;;5021887;28;20389;-62
2023/10/03 02:25:44;;;;;;;11.88;6.18;;;12.50;99.90;;;;;;5028604;28;20457;-62
2023/10/03 02:28:09;;;;;;;10.93;5.93;;;12.60;99.90;;;;;;5038016;28;20025;-63
2023/10/03 02:30:35;;;;;;;15.10;7.45;;;12.50;99.90;;;;;;5032014;28;20529;-63
2023/10/03 02:33:09;;;;;;;13.80;6.57;;;12.50;99.90;;;;;;5033579;28;20037;-62
2023/10/03 02:35:38;;;;;;;11.55;6.20;;;12.50;99.90;;;;;;5036145;28;20094;-63
2023/10/03 02:38:04;;;;;;;13.45;7.38;;;12.50;99.90;;;;;;5031830;28;20414;-63
2023/10/03 02:40:32;;;;;;;10.43;6.03;;;12.50;99.90;;;;;;5025769;28;20021;-63
2023/10/03 02:42:59;;;;;;;9.77;6.07;;;12.50;99.90;;;;;;5028289;28;20025;-63
2023/10/03 02:45:25;;;;;;;11.65;6.43;;;12.50;99.90;;;;;;5026021;28;20167;-63
2023/10/03 02:47:55;;;;;;;9.93;5.47;;;12.50;99.90;;;;;;5024504;28;20033;-59
2023/10/03 02:50:23;;;;;;;13.38;6.30;;;12.50;99.90;;;;;;5030834;28;20021;-60
2023/10/03 02:52:48;;;;;;;11.80;6.35;;;12.50;99.90;;;;;;5033310;28;20025;-59
2023/10/03 02:55:15;;;;;;;12.88;6.03;;;12.40;99.90;;;;;;5031541;28;20034;-60
2023/10/03 02:57:40;;;;;;;8.13;5.13;;;12.50;99.90;;;;;;5038304;28;20039;-64
2023/10/03 03:00:12;;;;;;;12.40;6.30;;;12.50;99.90;;;;;;5034975;28;20113;-64
2023/10/03 03:02:42;;;;;;;13.40;6.07;;;12.50;99.90;;;;;;5031726;28;20033;-63
2023/10/03 03:05:11;;;;;;;11.57;6.38;;;12.50;99.90;;;;;;5032809;28;20029;-63
2023/10/03 03:07:37;;;;;;;16.42;7.63;;;12.50;99.90;;;;;;5013167;28;20497;-63
2023/10/03 03:10:04;;;;;;;14.55;8.10;;;12.60;99.90;;;;;;5024695;28;20083;-64
2023/10/03 03:12:31;;;;;;;13.10;6.18;;;12.60;99.90;;;;;;5028166;28;20036;-63
2023/10/03 03:14:58;;;;;;;17.15;8.50;;;12.60;99.90;;;;;;5028393;28;20098;-64
2023/10/03 03:17:25;;;;;;;16.10;8.27;;;12.60;99.90;;;;;;5027740;28;20025;-63
2023/10/03 03:19:53;;;;;;;17.23;8.32;;;12.60;99.90;;;;;;5025596;28;20100;-63
2023/10/03 03:22:21;;;;;;;16.13;7.75;;;12.70;99.90;;;;;;5021703;28;20022;-63
2023/10/03 03:24:51;;;;;;;13.18;7.65;;;12.70;99.90;;;;;;5024284;28;20051;-63
2023/10/03 03:27:17;;;;;;;13.63;6.43;;;12.70;99.90;;;;;;5021295;28;20029;-63
2023/10/03 03:30:09;;;;;;;12.40;6.28;;;12.70;99.90;;;;;;5027959;28;20607;-61
2023/10/03 03:32:28;;;;;;;15.85;7.65;;;12.70;99.90;;;;;;5026960;28;20083;-63
2023/10/03 03:34:54;;;;;;;11.05;6.50;;;12.60;99.90;;;;;;5028013;28;20017;-63
2023/10/03 03:37:23;;;;;;;12.88;7.47;;;12.60;99.90;;;;;;5025518;28;20521;-60
2023/10/03 03:39:57;;;;;;;18.70;8.23;;;12.60;99.90;;;;;;5021677;28;20746;-54
2023/10/03 03:42:22;;;;;;;13.63;7.70;;;12.60;99.90;;;;;;5023863;28;20025;-59
2023/10/03 03:44:49;;;;;;;15.75;7.28;;;12.70;99.90;;;;;;5025559;28;20028;-59
2023/10/03 03:47:18;;;;;;;10.07;6.22;;;12.70;99.90;;;;;;5024837;28;20033;-59
2023/10/03 03:49:44;;;;;;;12.57;7.25;;;12.70;99.90;;;;;;5026363;28;20687;-59
2023/10/03 03:52:11;;;;;;;11.85;6.43;;;12.60;99.90;;;;;;5030383;28;20105;-59
2023/10/03 03:54:38;;;;;;;16.33;7.07;;;12.60;99.90;;;;;;5025560;28;20025;-59
2023/10/03 03:57:05;;;;;;;14.18;8.18;;;12.60;99.90;;;;;;5027167;28;20033;-59
2023/10/03 03:59:32;;;;;;;16.88;8.32;;;12.60;99.90;;;;;;5024260;28;20051;-59
2023/10/03 04:02:00;;;;;;;10.77;5.97;;;12.60;99.90;;;;;;5026209;28;20037;-58
2023/10/03 04:04:26;;;;;;;13.95;6.68;;;12.50;99.90;;;;;;5028925;28;20442;-59
2023/10/03 04:06:52;;;;;;;15.35;7.03;;;12.60;99.90;;;;;;5025532;28;20088;-59
2023/10/03 04:09:17;;;;;;;12.48;6.80;;;12.50;99.90;;;;;;5023120;28;20034;-59
2023/10/03 04:11:43;;;;;;;15.90;7.00;;;12.50;99.90;;;;;;5028000;28;20104;-58
2023/10/03 04:14:08;;;;;;;13.25;7.00;;;12.40;99.90;;;;;;5023959;28;20040;-59
2023/10/03 04:16:41;;;;;;;13.35;6.57;;;12.40;99.90;;;;;;5026406;28;20057;-59
2023/10/03 04:19:07;;;;;;;12.00;6.38;;;12.40;99.90;;;;;;5027196;28;20485;-58
2023/10/03 04:21:33;;;;;;;13.13;6.18;;;12.30;99.90;;;;;;5022717;28;20033;-58
2023/10/03 04:23:59;;;;;;;16.27;7.70;;;12.30;99.90;;;;;;5024677;28;20044;-59
2023/10/03 04:26:25;;;;;;;12.55;6.43;;;12.30;99.90;;;;;;5026048;28;20041;-58
2023/10/03 04:28:52;;;;;;;14.60;7.63;;;12.20;99.90;;;;;;5021221;28;20032;-58
2023/10/03 04:31:17;;;;;;;10.85;6.32;;;12.20;99.90;;;;;;5025327;28;20025;-58
2023/10/03 04:33:44;;;;;;;11.52;5.93;;;12.20;99.90;;;;;;5026698;28;20033;-58
2023/10/03 04:36:09;;;;;;;13.85;7.10;;;12.20;99.90;;;;;;5023156;28;20018;-59
2023/10/03 04:38:35;;;;;;;13.13;7.00;;;12.30;99.90;;;;;;5028467;28;20079;-59
2023/10/03 04:41:02;;;;;;;16.15;7.45;;;12.30;99.90;;;;;;5025820;28;20560;-59
2023/10/03 04:43:31;;;;;;;17.25;8.07;;;12.30;99.90;;;;;;5023586;28;20017;-58
2023/10/03 04:45:56;;;;;;;18.08;7.95;;;12.40;99.90;;;;;;5026878;28;20062;-58
2023/10/03 04:48:22;;;;;;;17.25;7.72;;;12.50;99.90;;;;;;5022416;28;20561;-58
2023/10/03 04:50:48;;;;;;;15.18;7.82;;;12.60;99.90;;;;;;5021159;28;20343;-58
2023/10/03 04:53:18;;;;;;;18.13;8.48;;;12.70;99.90;;;;;;5028463;28;20087;-60
2023/10/03 04:55:45;;;;;;;17.77;8.93;;;12.70;99.90;;;;;;5030676;28;20025;-58
2023/10/03 04:58:10;;;;;;;17.70;8.60;;;12.80;99.90;;;;;;5024591;28;20045;-58
2023/10/03 05:00:36;;;;;;;15.73;8.55;;;12.90;99.90;;;;;;5030433;28;20068;-59
2023/10/03 05:03:04;;;;;;;17.02;9.05;;;13.00;99.90;;;;;;5029320;28;20584;-59
2023/10/03 05:05:30;;;;;;;15.60;7.97;;;13.10;99.90;;;;;;5029757;28;20037;-59
2023/10/03 05:07:56;;;;;;;16.88;7.82;;;13.10;99.90;;;;;;5025991;28;20701;-58
2023/10/03 05:10:23;;;;;;;14.00;6.95;;;13.20;99.90;;;;;;5028716;28;20025;-58
2023/10/03 05:12:51;;;;;;;18.45;9.50;;;13.30;99.90;;;;;;5027289;28;20113;-59
2023/10/03 05:15:16;;;;;;;17.13;9.00;;;13.30;99.90;;;;;;5029404;28;20018;-59
2023/10/03 05:17:45;;;;;;;20.05;9.57;;;13.50;99.90;;;;;;5031059;28;20021;-59
2023/10/03 05:20:17;;;;;;;17.52;8.82;;;13.50;99.90;;;;;;5027439;28;20026;-59
2023/10/03 05:22:45;;;;;;;17.85;8.70;;;13.60;99.90;;;;;;5023207;28;20026;-58
2023/10/03 05:25:12;;;;;;;20.77;9.40;;;13.70;99.90;;;;;;5038977;28;20128;-59
2023/10/03 05:27:41;;;;;;;18.77;9.43;;;13.80;99.90;;;;;;5030790;28;20435;-58
2023/10/03 05:30:08;;;;;;;18.15;8.05;;;13.90;99.90;;;;;;5030457;28;20508;-59
2023/10/03 05:32:35;;;;;;;21.55;9.27;;;14.00;99.90;;;;;;5020847;28;20108;-59
2023/10/03 05:35:01;;;;;;;17.65;8.93;;;14.10;99.90;;;;;;5026891;28;20030;-59
2023/10/03 05:37:27;;;;;;;18.17;8.38;;;14.20;99.90;;;;;;5029670;28;20013;-59
2023/10/03 05:39:53;;;;;;;18.15;8.95;;;14.30;99.90;;;;;;5027661;28;20448;-59
2023/10/03 05:42:18;;;;;;;17.52;8.65;;;14.40;99.90;;;;;;5028247;28;20473;-59
2023/10/03 05:44:45;;;;;;;16.48;8.43;;;14.50;99.90;;;;;;5031313;28;20038;-59
2023/10/03 05:47:10;;;;;;;21.35;9.32;;;14.70;99.90;;;;;;5024712;28;20053;-60
2023/10/03 05:49:36;;;;;;;19.48;8.70;;;14.80;99.90;;;;;;5025610;28;20731;-59
2023/10/03 05:52:02;;;;;;;18.55;9.00;;;15.00;99.90;;;;;;5021748;28;20116;-59
2023/10/03 05:54:30;;;;;;;15.35;8.27;;;15.10;99.90;;;;;;5032369;28;20021;-59
2023/10/03 05:56:55;;;;;;;15.75;8.32;;;15.20;99.90;;;;;;5027543;28;20031;-59
2023/10/03 05:59:21;;;;;;;19.00;9.10;;;15.40;99.90;;;;;;5032209;28;20018;-58
2023/10/03 06:01:48;;;;;;;19.33;9.07;;;15.70;99.90;;;;;;5034063;28;20056;-59
2023/10/03 06:04:13;;;;;;;16.60;8.13;;;16.10;99.90;;;;;;5029095;28;20132;-59
2023/10/03 06:06:39;;;;;;;19.77;9.77;;;16.60;99.90;;;;;;5025889;28;20136;-59
2023/10/03 06:09:04;;;;;;;15.77;8.30;;;17.10;99.90;;;;;;5029915;28;20052;-59
2023/10/03 06:11:30;;;;;;;17.80;8.27;;;17.20;99.90;;;;;;5023071;28;20807;-58
2023/10/03 06:13:59;;;;;;;20.27;9.23;;;17.30;99.90;;;;;;5022243;28;20041;-59
2023/10/03 06:16:28;;;;;;;18.75;9.85;;;17.30;99.70;;;;;;5028955;28;20039;-59
2023/10/03 06:18:53;;;;;;;19.10;9.45;;;17.20;97.70;;;;;;5026088;28;20079;-58
2023/10/03 06:21:19;;;;;;;19.08;8.50;;;17.20;97.30;;;;;;5028057;28;20116;-58
2023/10/03 06:23:47;;;;;;;18.27;9.13;;;17.10;96.80;;;;;;5032080;28;20037;-59
2023/10/03 06:26:17;;;;;;;17.83;8.52;;;17.10;97.00;;;;;;5030600;28;20807;-58
2023/10/03 06:28:43;;;;;;;17.08;9.05;;;17.20;96.90;;;;;;5024913;28;20029;-59
2023/10/03 06:31:10;;;;;;;20.48;9.40;;;17.20;95.20;;;;;;5018233;28;20117;-58
2023/10/03 06:33:37;;;;;;;20.70;9.43;;;17.30;95.90;;;;;;5024185;28;20460;-59
2023/10/03 06:36:06;;;;;;;19.08;8.80;;;17.30;93.40;;;;;;5028970;28;20720;-59
2023/10/03 06:38:32;;;;;;;19.70;9.65;;;17.40;93.90;;;;;;5028065;28;20033;-58
2023/10/03 06:40:57;;;;;;;20.23;10.07;;;17.50;94.70;;;;;;5020268;28;20035;-58
2023/10/03 06:43:23;;;;;;;17.00;9.15;;;17.50;94.00;;;;;;5025160;28;20056;-59
2023/10/03 06:45:48;;;;;;;16.73;8.88;;;17.60;94.20;;;;;;5023708;28;20095;-59
2023/10/03 06:48:14;;;;;;;21.02;9.70;;;17.60;94.70;;;;;;5022411;28;20725;-58
2023/10/03 06:50:42;;;;;;;17.67;9.35;;;17.60;94.00;;;;;;5023246;28;20021;-58
2023/10/03 06:53:08;;;;;;;18.80;9.85;;;17.60;93.40;;;;;;5024918;28;20692;-59
2023/10/03 06:55:36;;;;;;;20.75;9.15;;;17.60;93.00;;;;;;5026355;28;20027;-58
2023/10/03 06:58:04;;;;;;;24.65;10.45;;;17.60;93.60;;;;;;5028616;28;20029;-58
2023/10/03 07:00:32;;;;;;;16.60;8.52;;;17.60;93.40;;;;;;5020142;28;20058;-58
2023/10/03 07:02:58;;;;;;;18.30;9.15;;;17.70;93.90;;;;;;5015926;28;20045;-58
2023/10/03 07:05:24;;;;;;;18.63;8.98;;;17.70;93.90;;;;;;5025302;28;20469;-59
2023/10/03 07:07:49;;;;;;;21.65;10.10;;;17.70;92.90;;;;;;5023155;28;20033;-58
2023/10/03 07:10:15;;;;;;;20.63;9.57;;;17.80;93.00;;;;;;5027258;28;20524;-59
2023/10/03 07:12:40;;;;;;;24.02;10.93;;;17.80;91.60;;;;;;5022962;28;20053;-58
2023/10/03 07:15:11;;;;;;;23.20;10.38;;;17.90;92.30;;;;;;5026613;28;20029;-58
2023/10/03 07:17:37;;;;;;;20.50;9.85;;;18.10;92.00;;;;;;5029398;28;20021;-58
2023/10/03 07:20:07;;;;;;;19.25;9.52;;;18.20;91.20;;;;;;5027178;28;20037;-58
2023/10/03 07:22:33;;;;;;;18.88;10.02;;;18.40;91.70;;;;;;5027371;28;20024;-59
2023/10/03 07:24:59;;;;;;;22.42;10.07;;;18.60;90.30;;;;;;5024225;28;20052;-59
2023/10/03 07:27:24;;;;;;;24.75;11.55;;;18.80;90.50;;;;;;5026355;28;20449;-59
2023/10/03 07:29:50;;;;;;;21.73;11.10;;;18.90;90.10;;;;;;5024593;28;20033;-60
2023/10/03 07:32:16;;;;;;;22.02;10.60;;;19.00;89.30;;;;;;5023630;28;20025;-53
2023/10/03 07:34:46;;;;;;;22.02;10.13;;;19.00;88.90;;;;;;5021819;28;20053;-50
2023/10/03 07:37:13;;;;;;;19.63;10.55;;;19.10;87.50;;;;;;5026453;28;20086;-54
2023/10/03 07:39:39;;;;;;;20.98;10.27;;;19.20;89.00;;;;;;5021186;28;20074;-53
2023/10/03 07:42:05;;;;;;;23.67;10.38;;;19.20;88.00;;;;;;5030919;28;20056;-53
2023/10/03 07:44:31;;;;;;;22.98;10.57;;;19.30;87.50;;;;;;5025736;28;21159;-52
2023/10/03 07:46:57;;;;;;;21.10;10.73;;;19.40;88.10;;;;;;5020381;28;20454;-51
2023/10/03 07:49:22;;;;;;;23.45;10.85;;;19.50;86.60;;;;;;5030822;28;20104;-54
2023/10/03 07:51:50;;;;;;;19.52;9.98;;;19.80;86.50;;;;;;5026868;28;20561;-51
2023/10/03 07:54:19;;;;;;;22.13;10.75;;;19.90;85.40;;;;;;5023223;28;20389;-49
2023/10/03 07:56:44;;;;;;;26.38;11.60;;;20.10;87.10;;;;;;5025717;28;20033;-56
2023/10/03 07:59:10;;;;;;;21.33;10.52;;;20.40;85.90;;;;;;5028374;28;20029;-55
2023/10/03 08:01:38;;;;;;;24.08;11.82;;;20.70;86.10;;;;;;5014352;28;20773;-55
2023/10/03 08:04:13;;;;;;;24.60;12.15;;;20.90;84.90;;;;;;5030955;28;20430;-55
2023/10/03 08:06:39;;;;;;;21.33;11.90;;;21.10;81.20;;;;;;5024625;28;20029;-55
2023/10/03 08:09:08;;;;;;;22.52;11.25;;;21.30;80.50;;;;;;5022692;28;20040;-55
2023/10/03 08:11:36;;;;;;;24.70;11.77;;;21.40;79.80;;;;;;5027191;28;20028;-55
2023/10/03 08:14:21;;;;;;;24.02;11.95;;;21.50;76.80;;;;;;5031566;28;20033;-56
2023/10/03 08:16:49;;;;;;;21.95;11.10;;;21.50;78.50;;;;;;5031409;28;20521;-55
2023/10/03 08:19:24;;;;;;;23.65;11.57;;;21.70;78.20;;;;;;5020511;28;20028;-57
2023/10/03 08:21:54;;;;;;;20.75;10.43;;;21.80;79.40;;;;;;5025459;28;20029;-56
2023/10/03 08:24:24;;;;;;;20.90;11.10;;;22.10;74.20;;;;;;5028576;28;20083;-55
2023/10/03 08:26:51;;;;;;;24.95;12.52;;;22.20;78.50;;;;;;5024316;28;20045;-57
2023/10/03 08:29:26;;;;;;;25.83;12.98;;;22.40;76.80;;;;;;5022017;28;20099;-55
2023/10/03 08:31:59;;;;;;;26.10;12.67;;;22.80;74.30;;;;;;5020620;28;20030;-57
2023/10/03 08:34:29;;;;;;;23.60;12.10;;;23.10;72.80;;;;;;5026194;28;20354;-57
2023/10/03 08:36:58;;;;;;;22.30;11.73;;;23.40;75.70;;;;;;5022490;28;20028;-56
2023/10/03 08:39:32;;;;;;;24.50;11.95;;;23.80;73.70;;;;;;5021749;28;20025;-57
2023/10/03 08:42:18;;;;;;;28.15;14.63;;;24.20;71.30;;;;;;5030657;28;20052;-55
2023/10/03 08:44:51;;;;;;;26.02;13.90;;;24.60;66.00;;;;;;5030080;28;20111;-56
2023/10/03 08:47:23;;;;;;;25.30;13.57;;;24.90;67.20;;;;;;5020558;28;21267;-56
2023/10/03 08:49:56;;;;;;;21.80;12.55;;;24.90;63.00;;;;;;5024513;28;20404;-56
2023/10/03 08:52:38;;;;;;;26.65;14.40;;;24.80;66.40;;;;;;5022374;28;20508;-56
2023/10/03 08:55:08;;;;;;;26.20;14.05;;;24.70;63.10;;;;;;5019821;28;20029;-56
2023/10/03 08:57:37;;;;;;;21.92;11.45;;;24.80;64.10;;;;;;5026258;28;20025;-57
2023/10/03 09:00:06;;;;;;;27.00;14.20;;;25.00;66.00;;;;;;5022543;28;20501;-58
2023/10/03 09:02:45;;;;;;;22.25;12.50;;;25.20;61.10;;;;;;5024542;28;20014;-57
2023/10/03 09:05:15;;;;;;;23.10;12.70;;;25.20;64.20;;;;;;5029121;28;20676;-57
2023/10/03 09:07:44;;;;;;;27.30;13.73;;;25.20;64.40;;;;;;5029922;28;20043;-57
2023/10/03 09:10:20;;;;;;;27.27;13.63;;;25.10;61.40;;;;;;5014573;28;20029;-55
2023/10/03 09:12:50;;;;;;;23.25;13.60;;;25.00;59.90;;;;;;5031395;28;20036;-56
2023/10/03 09:15:17;;;;;;;21.65;12.70;;;24.80;60.70;;;;;;5025711;28;20036;-58
2023/10/03 09:17:49;;;;;;;25.77;14.00;;;24.80;62.40;;;;;;5027359;28;20021;-56
2023/10/03 09:20:31;;;;;;;24.50;14.00;;;24.60;61.60;;;;;;5009390;28;20682;-56
2023/10/03 09:23:05;;;;;;;25.52;14.40;;;24.50;61.40;;;;;;5027222;28;20540;-56
2023/10/03 09:25:32;;;;;;;24.67;13.55;;;24.50;61.70;;;;;;5025131;28;20037;-56
2023/10/03 09:28:07;;;;;;;24.98;12.68;;;24.40;61.40;;;;;;5018760;28;20058;-58
2023/10/03 09:30:38;;;;;;;28.63;14.03;;;24.40;61.90;;;;;;5019428;28;20104;-55
2023/10/03 09:33:12;;;;;;;27.50;13.32;;;24.30;62.30;;;;;;5026753;28;20025;-56
2023/10/03 09:35:39;;;;;;;26.58;14.50;;;24.30;62.00;;;;;;5021444;28;20032;-55
2023/10/03 09:38:09;;;;;;;26.70;14.07;;;24.10;62.20;;;;;;5027102;28;20036;-56
2023/10/03 09:40:51;;;;;;;27.50;15.13;;;24.10;61.90;;;;;;5033947;28;20033;-56
2023/10/03 09:43:19;;;;;;;24.55;13.27;;;24.10;62.30;;;;;;5022883;28;20032;-55
2023/10/03 09:45:46;;;;;;;24.50;13.98;;;24.20;63.00;;;;;;5024042;28;20053;-55
2023/10/03 09:48:13;;;;;;;23.05;12.82;;;24.30;62.80;;;;;;5022101;28;20433;-55
2023/10/03 09:50:51;;;;;;;22.63;11.98;;;24.30;62.80;;;;;;5034231;28;20035;-56
2023/10/03 09:53:17;;;;;;;21.13;12.25;;;24.40;62.40;;;;;;5021698;28;20078;-56
2023/10/03 09:55:46;;;;;;;23.92;13.52;;;24.60;62.70;;;;;;5024545;28;20032;-55
2023/10/03 09:58:24;;;;;;;26.55;13.93;;;24.60;59.90;;;;;;5027929;28;20079;-55
2023/10/03 10:00:52;;;;;;;20.63;10.80;;;24.70;61.50;;;;;;5029564;28;20075;-56
2023/10/03 10:03:26;;;;;;;26.30;12.73;;;24.80;61.10;;;;;;5027970;28;20025;-54
2023/10/03 10:06:12;;;;;;;23.13;12.52;;;24.80;60.70;;;;;;5028328;28;20065;-55
2023/10/03 10:09:01;;;;;;;25.95;12.23;;;25.00;58.40;;;;;;5023281;28;20051;-56
2023/10/03 10:11:29;;;;;;;20.13;11.30;;;25.00;58.30;;;;;;5013936;28;20064;-55
2023/10/03 10:14:09;;;;;;;22.17;12.13;;;25.10;59.20;;;;;;5026584;28;20037;-56
2023/10/03 10:16:58;;;;;;;24.33;12.50;;;25.10;58.20;;;;;;5032714;28;20029;-56
2023/10/03 10:19:25;;;;;;;23.55;12.30;;;25.10;57.00;;;;;;5028453;28;20044;-56
2023/10/03 10:21:59;;;;;;;25.08;12.45;;;25.20;58.10;;;;;;5029766;28;20025;-55
2023/10/03 10:24:27;;;;;;;25.05;12.57;;;25.20;57.30;;;;;;5003840;28;20026;-55
2023/10/03 10:26:53;;;;;;;24.67;13.02;;;25.10;56.60;;;;;;5023171;28;20072;-54
2023/10/03 10:29:21;;;;;;;23.60;11.88;;;25.10;57.00;;;;;;5025763;28;20059;-56
2023/10/03 10:31:57;;;;;;;23.77;13.13;;;25.10;57.30;;;;;;5021843;28;20057;-54
2023/10/03 10:34:32;;;;;;;24.60;11.80;;;25.00;57.40;;;;;;5020920;28;20032;-55
2023/10/03 10:37:15;;;;;;;20.35;11.40;;;25.00;57.80;;;;;;5028814;28;20449;-56
2023/10/03 10:40:09;;;;;;;21.05;10.63;;;25.00;57.70;;;;;;5028115;28;20393;-55
2023/10/03 10:42:56;;;;;;;20.73;11.77;;;25.00;57.50;;;;;;5025495;28;20028;-55
2023/10/03 10:45:23;;;;;;;20.50;11.50;;;25.00;56.80;;;;;;5028194;28;20582;-56
2023/10/03 10:47:50;;;;;;;21.10;10.90;;;25.00;57.70;;;;;;5022182;28;20060;-56
2023/10/03 10:50:17;;;;;;;24.55;12.02;;;25.00;58.10;;;;;;5032384;28;20484;-55
2023/10/03 10:52:53;;;;;;;24.23;11.93;;;25.10;58.40;;;;;;5026013;28;20025;-55
2023/10/03 10:55:25;;;;;;;26.05;12.63;;;25.10;57.70;;;;;;5023061;28;20700;-56
2023/10/03 10:58:08;;;;;;;23.25;12.38;;;25.10;58.00;;;;;;5024258;28;20048;-55
2023/10/03 11:00:34;;;;;;;21.77;11.55;;;25.10;57.00;;;;;;5024720;28;20017;-54
2023/10/03 11:03:02;;;;;;;20.55;11.68;;;25.20;58.00;;;;;;5029240;28;20029;-56
2023/10/03 11:05:41;;;;;;;21.20;10.27;;;25.30;57.60;;;;;;5028727;28;20033;-57
2023/10/03 11:08:06;;;;;;;20.75;10.93;;;25.30;56.90;;;;;;5025078;28;20040;-56
2023/10/03 11:10:33;;;;;;;20.25;11.48;;;25.40;57.40;;;;;;5027114;28;20025;-54
2023/10/03 11:13:00;;;;;;;24.55;11.70;;;25.40;56.50;;;;;;5025287;28;20123;-54
2023/10/03 11:15:26;;;;;;;25.08;12.13;;;25.50;56.40;;;;;;5026636;28;20017;-56
2023/10/03 11:17:52;;;;;;;20.23;11.13;;;25.50;56.00;;;;;;5023629;28;20888;-56
2023/10/03 11:20:17;;;;;;;21.75;11.43;;;25.60;56.00;;;;;;5025113;28;20064;-56
2023/10/03 11:22:47;;;;;;;18.25;10.63;;;25.70;55.90;;;;;;5025232;28;20053;-55
2023/10/03 11:25:13;;;;;;;21.65;11.13;;;25.70;55.50;;;;;;5020723;28;20701;-56
2023/10/03 11:27:39;;;;;;;21.42;11.27;;;25.70;55.70;;;;;;5025622;28;20026;-56
2023/10/03 11:30:15;;;;;;;20.63;10.65;;;25.80;55.60;;;;;;5026250;28;20037;-56
2023/10/03 11:32:41;;;;;;;20.02;10.82;;;25.80;53.70;;;;;;5031650;28;20017;-55
2023/10/03 11:35:21;;;;;;;18.00;9.85;;;25.80;54.80;;;;;;5028741;28;20099;-55
2023/10/03 11:37:48;;;;;;;21.65;10.25;;;25.80;54.00;;;;;;5013965;28;20029;-56
2023/10/03 11:40:19;;;;;;;19.20;10.63;;;25.90;54.00;;;;;;5022866;28;20398;-56
2023/10/03 11:42:51;;;;;;;22.75;11.50;;;26.00;53.50;;;;;;5026302;28;20480;-56
2023/10/03 11:45:19;;;;;;;18.38;10.43;;;26.00;52.50;;;;;;5020295;28;20146;-56
2023/10/03 11:48:17;;;;;;;23.08;11.00;;;26.00;52.30;;;;;;5017476;28;20039;-56
2023/10/03 11:50:44;;;;;;;16.75;9.48;;;25.80;51.60;;;;;;5018118;28;20049;-56
2023/10/03 11:53:11;;;;;;;18.98;9.45;;;25.90;52.80;;;;;;5021845;28;20117;-56
2023/10/03 11:55:40;;;;;;;21.13;9.98;;;25.90;52.60;;;;;;5013821;28;20025;-56
2023/10/03 11:58:06;;;;;;;20.58;9.65;;;25.90;51.90;;;;;;5015456;28;20056;-56
2023/10/03 12:00:32;;;;;;;16.60;9.55;;;25.80;52.30;;;;;;5017127;28;20560;-56
2023/10/03 12:02:58;;;;;;;19.00;9.93;;;25.70;52.40;;;;;;5016379;28;20033;-56
2023/10/03 12:05:23;;;;;;;21.48;9.07;;;25.60;52.70;;;;;;5022959;28;20025;-56
2023/10/03 12:07:50;;;;;;;20.27;9.60;;;25.60;53.00;;;;;;5022131;28;20576;-55
2023/10/03 12:10:19;;;;;;;15.52;8.50;;;25.50;52.90;;;;;;5026310;28;20378;-55
2023/10/03 12:12:46;;;;;;;16.02;9.18;;;25.50;53.20;;;;;;5019848;28;20045;-56
2023/10/03 12:15:12;;;;;;;16.85;9.43;;;25.50;53.10;;;;;;5018141;28;20144;-56
2023/10/03 12:17:39;;;;;;;19.98;9.30;;;25.50;53.10;;;;;;5017591;28;20033;-56
2023/10/03 12:20:06;;;;;;;17.08;9.57;;;25.40;52.90;;;;;;5017865;28;20030;-56
2023/10/03 12:22:32;;;;;;;17.65;8.68;;;25.40;52.90;;;;;;5017923;28;20025;-55
2023/10/03 12:24:57;;;;;;;19.17;9.82;;;25.30;53.00;;;;;;5017606;28;20038;-56
2023/10/03 12:27:23;;;;;;;17.75;9.25;;;25.20;52.90;;;;;;5000685;28;20700;-56
2023/10/03 12:29:49;;;;;;;15.32;8.45;;;25.20;53.30;;;;;;5018509;28;20083;-61
2023/10/03 12:32:14;;;;;;;15.07;8.48;;;25.10;53.60;;;;;;5018329;28;20021;-56
2023/10/03 12:34:40;;;;;;;18.30;9.10;;;25.20;53.90;;;;;;5022078;28;20662;-56
2023/10/03 12:37:11;;;;;;;17.05;8.73;;;25.10;53.60;;;;;;5017313;28;20048;-57
2023/10/03 12:39:37;;;;;;;15.20;8.70;;;25.10;53.90;;;;;;5017429;28;20985;-56